Time;durP1;ratioP1;P1;durP2;ratioP2;P2;SDS_P1;SDS_P2;PMS_P1;PMS_P2;Temp;Humidity;BMP_temperature;BMP_pressure;BME280_temperature;BME280_humidity;BME280_pressure;Samples;Min_cycle;Max_cycle;Signal;HPM_P1;HPM_P2
2023/07/27 00:01:37;;;;;;;1.90;1.80;;;13.90;99.90;;;;;;4996606;28;20567;-61
2023/07/27 00:04:05;;;;;;;2.43;2.23;;;13.90;99.90;;;;;;5001714;28;20495;-62
2023/07/27 00:06:34;;;;;;;4.00;2.47;;;13.80;99.90;;;;;;4999307;28;20559;-62
2023/07/27 00:09:03;;;;;;;3.83;2.60;;;13.80;99.90;;;;;;4999941;28;20520;-62
2023/07/27 00:11:31;;;;;;;3.43;3.13;;;13.80;99.90;;;;;;5000492;28;20558;-61
2023/07/27 00:13:59;;;;;;;2.90;2.70;;;13.80;99.90;;;;;;4998244;28;20494;-62
2023/07/27 00:16:27;;;;;;;3.00;2.80;;;13.80;99.90;;;;;;5003618;28;20964;-62
2023/07/27 00:18:55;;;;;;;3.00;2.80;;;13.80;99.90;;;;;;5000468;28;21028;-62
2023/07/27 00:21:23;;;;;;;3.50;3.20;;;13.80;99.90;;;;;;5002546;28;20560;-62
2023/07/27 00:23:52;;;;;;;4.53;2.83;;;13.80;99.90;;;;;;5001184;28;20571;-62
2023/07/27 00:26:20;;;;;;;4.03;3.37;;;13.80;99.90;;;;;;5003653;28;20508;-62
2023/07/27 00:28:48;;;;;;;5.00;3.20;;;13.80;99.90;;;;;;5002073;28;20582;-62
2023/07/27 00:31:16;;;;;;;3.10;2.80;;;13.90;99.90;;;;;;4998052;28;20511;-61
2023/07/27 00:33:45;;;;;;;3.70;3.40;;;13.90;99.90;;;;;;4998666;28;20543;-61
2023/07/27 00:36:12;;;;;;;6.83;3.17;;;13.90;99.90;;;;;;4996715;28;20486;-62
2023/07/27 00:38:40;;;;;;;3.30;2.93;;;14.00;99.90;;;;;;4997273;28;20540;-62
2023/07/27 00:41:10;;;;;;;3.83;3.53;;;14.00;99.90;;;;;;4996970;28;20559;-62
2023/07/27 00:43:38;;;;;;;4.93;3.87;;;14.10;99.90;;;;;;5000772;28;20484;-61
2023/07/27 00:46:06;;;;;;;4.10;3.50;;;14.10;99.90;;;;;;5007170;28;22003;-62
2023/07/27 00:48:34;;;;;;;4.00;3.63;;;14.10;99.90;;;;;;5019098;28;20460;-62
2023/07/27 00:51:03;;;;;;;4.13;3.77;;;14.10;99.90;;;;;;5016380;28;20551;-62
2023/07/27 00:53:31;;;;;;;4.47;4.07;;;14.10;99.90;;;;;;5011470;28;21066;-62
2023/07/27 00:55:59;;;;;;;5.23;3.83;;;14.10;99.90;;;;;;5013965;28;20527;-62
2023/07/27 00:58:29;;;;;;;3.77;3.40;;;14.10;99.90;;;;;;5009124;28;20484;-62
2023/07/27 01:01:00;;;;;;;4.90;4.50;;;14.10;99.90;;;;;;5003731;28;21103;-62
2023/07/27 01:03:28;;;;;;;5.17;4.10;;;14.10;99.90;;;;;;4998422;28;20488;-62
2023/07/27 01:05:57;;;;;;;4.33;4.00;;;14.10;99.90;;;;;;5016209;28;20491;-62
2023/07/27 01:08:25;;;;;;;4.63;4.23;;;14.10;99.90;;;;;;5011486;28;20500;-62
2023/07/27 01:10:58;;;;;;;3.93;3.63;;;14.10;99.90;;;;;;5015243;28;20833;-62
2023/07/27 01:13:33;;;;;;;4.73;4.37;;;14.10;99.90;;;;;;5014780;28;20563;-62
2023/07/27 01:16:16;;;;;;;4.13;3.73;;;14.10;99.90;;;;;;5016079;28;20515;-62
2023/07/27 01:18:51;;;;;;;5.67;4.47;;;14.10;99.90;;;;;;5018936;28;20483;-62
2023/07/27 01:21:26;;;;;;;5.80;5.20;;;14.10;99.90;;;;;;5008675;28;20496;-62
2023/07/27 01:24:18;;;;;;;5.70;5.17;;;14.10;99.90;;;;;;4998019;28;20548;-62
2023/07/27 01:27:15;;;;;;;5.80;4.70;;;14.10;99.90;;;;;;5002549;28;20476;-62
2023/07/27 01:29:59;;;;;;;5.23;4.73;;;14.10;99.90;;;;;;5001589;28;20515;-62
2023/07/27 01:32:34;;;;;;;6.33;4.53;;;14.10;99.90;;;;;;5000370;28;20579;-62
2023/07/27 01:35:03;;;;;;;6.10;4.87;;;14.10;99.90;;;;;;5003673;28;20675;-62
2023/07/27 01:37:31;;;;;;;4.87;4.40;;;14.00;99.90;;;;;;5003331;28;20472;-62
2023/07/27 01:40:02;;;;;;;6.03;4.90;;;14.10;99.90;;;;;;4999813;28;20600;-62
2023/07/27 01:42:31;;;;;;;6.20;5.37;;;14.00;99.90;;;;;;5000941;28;21026;-62
2023/07/27 01:45:00;;;;;;;6.70;5.20;;;13.90;99.90;;;;;;4999899;28;20464;-62
2023/07/27 01:47:31;;;;;;;5.77;5.17;;;13.90;99.90;;;;;;4996166;28;20560;-62
2023/07/27 01:50:00;;;;;;;5.67;5.13;;;13.90;99.90;;;;;;4995319;28;20550;-62
2023/07/27 01:52:29;;;;;;;5.20;4.70;;;13.80;99.90;;;;;;4995476;28;20846;-61
2023/07/27 01:54:58;;;;;;;5.00;4.60;;;13.80;99.90;;;;;;5002803;28;20578;-62
2023/07/27 01:57:26;;;;;;;5.63;5.10;;;13.70;99.90;;;;;;4998180;28;20611;-62
2023/07/27 01:59:55;;;;;;;5.37;4.87;;;13.70;99.90;;;;;;5004224;28;20492;-61
2023/07/27 02:02:24;;;;;;;8.90;5.60;;;13.70;99.90;;;;;;5001221;28;20570;-62
2023/07/27 02:04:57;;;;;;;5.80;5.07;;;13.70;99.90;;;;;;4996342;28;20472;-62
2023/07/27 02:07:25;;;;;;;5.70;4.90;;;13.70;99.90;;;;;;4994921;28;20522;-62
2023/07/27 02:09:53;;;;;;;5.20;4.73;;;13.60;99.90;;;;;;5001881;28;20583;-62
2023/07/27 02:12:26;;;;;;;6.80;5.80;;;13.60;99.90;;;;;;4995410;28;20516;-62
2023/07/27 02:15:02;;;;;;;5.67;5.17;;;13.60;99.90;;;;;;5001110;28;20531;-62
2023/07/27 02:17:36;;;;;;;5.97;5.47;;;13.60;99.90;;;;;;4994557;28;20558;-61
2023/07/27 02:20:10;;;;;;;5.37;4.93;;;13.50;99.90;;;;;;4997046;28;20626;-61
2023/07/27 02:22:40;;;;;;;6.33;5.70;;;13.50;99.90;;;;;;4996135;28;20591;-62
2023/07/27 02:25:10;;;;;;;6.80;5.90;;;13.50;99.90;;;;;;4996492;28;20482;-62
2023/07/27 02:27:38;;;;;;;7.10;5.23;;;13.40;99.90;;;;;;4992275;28;20918;-62
2023/07/27 02:30:07;;;;;;;7.27;6.57;;;13.40;99.90;;;;;;4999018;28;20579;-62
2023/07/27 02:32:35;;;;;;;6.50;5.90;;;13.40;99.90;;;;;;4997316;28;20571;-62
2023/07/27 02:35:03;;;;;;;6.30;5.70;;;13.40;99.90;;;;;;4994659;28;21017;-62
2023/07/27 02:37:32;;;;;;;7.37;5.93;;;13.30;99.90;;;;;;4998332;28;20560;-62
2023/07/27 02:40:00;;;;;;;6.00;5.50;;;13.30;99.90;;;;;;5000071;28;20580;-62
2023/07/27 02:42:28;;;;;;;8.57;6.20;;;13.30;99.90;;;;;;4996648;28;20538;-61
2023/07/27 02:44:56;;;;;;;7.20;6.10;;;13.30;99.90;;;;;;4996756;28;20549;-61
2023/07/27 02:47:24;;;;;;;7.50;6.43;;;13.30;99.90;;;;;;4994040;28;20476;-61
2023/07/27 02:49:52;;;;;;;6.50;5.90;;;13.30;99.90;;;;;;5001657;28;20484;-62
2023/07/27 02:52:20;;;;;;;6.50;5.83;;;13.30;99.90;;;;;;4996504;28;20499;-62
2023/07/27 02:54:50;;;;;;;8.30;6.43;;;13.30;99.90;;;;;;4998156;28;20511;-61
2023/07/27 02:57:18;;;;;;;8.60;6.83;;;13.30;99.90;;;;;;4999787;28;20529;-61
2023/07/27 02:59:46;;;;;;;8.97;7.40;;;13.30;99.90;;;;;;4998508;28;20575;-61
2023/07/27 03:02:15;;;;;;;8.30;6.23;;;13.20;99.90;;;;;;4999644;28;20492;-61
2023/07/27 03:04:43;;;;;;;8.93;6.10;;;13.20;99.90;;;;;;4999579;28;20519;-62
2023/07/27 03:07:11;;;;;;;6.70;6.00;;;13.20;99.90;;;;;;5001139;28;20551;-62
2023/07/27 03:09:39;;;;;;;7.10;5.97;;;13.20;99.90;;;;;;5003809;28;20575;-62
2023/07/27 03:12:09;;;;;;;6.60;5.97;;;13.20;99.90;;;;;;4998424;28;20583;-62
2023/07/27 03:14:37;;;;;;;7.90;6.50;;;13.20;99.90;;;;;;5003936;28;20476;-62
2023/07/27 03:17:06;;;;;;;7.03;6.33;;;13.20;99.90;;;;;;5004540;28;20491;-62
2023/07/27 03:19:34;;;;;;;6.40;5.50;;;13.20;99.90;;;;;;4999241;28;20542;-62
2023/07/27 03:22:02;;;;;;;6.90;6.20;;;13.10;99.90;;;;;;5000196;28;20627;-62
2023/07/27 03:24:30;;;;;;;6.33;5.73;;;13.20;99.90;;;;;;5003790;28;20527;-62
2023/07/27 03:26:58;;;;;;;6.00;5.50;;;13.20;99.90;;;;;;5000801;28;20874;-62
2023/07/27 03:29:27;;;;;;;7.53;6.73;;;13.20;99.90;;;;;;5010227;28;21045;-62
2023/07/27 03:31:55;;;;;;;6.93;6.30;;;13.10;99.90;;;;;;5008762;28;20918;-62
2023/07/27 03:34:23;;;;;;;6.53;5.90;;;13.10;99.90;;;;;;5005028;28;20981;-64
2023/07/27 03:36:51;;;;;;;6.80;6.17;;;13.10;99.90;;;;;;5000741;28;20499;-62
2023/07/27 03:39:19;;;;;;;8.13;5.90;;;13.10;99.90;;;;;;5000551;28;20536;-62
2023/07/27 03:41:47;;;;;;;7.00;6.30;;;13.10;99.90;;;;;;5001330;28;20472;-62
2023/07/27 03:44:15;;;;;;;7.90;6.43;;;13.00;99.90;;;;;;5004748;28;20472;-62
2023/07/27 03:46:44;;;;;;;7.73;6.53;;;13.00;99.90;;;;;;5008311;28;20994;-62
2023/07/27 03:49:12;;;;;;;10.00;6.93;;;13.00;99.90;;;;;;5003844;28;20491;-61
2023/07/27 03:51:40;;;;;;;7.47;6.70;;;13.00;99.90;;;;;;5009687;28;20475;-62
2023/07/27 03:54:08;;;;;;;8.33;7.37;;;13.10;99.90;;;;;;5008763;28;20502;-63
2023/07/27 03:56:36;;;;;;;6.53;5.97;;;13.00;99.90;;;;;;5007988;28;21107;-62
2023/07/27 03:59:04;;;;;;;6.90;6.30;;;13.10;99.90;;;;;;5011025;28;20527;-62
2023/07/27 04:01:32;;;;;;;6.50;5.90;;;13.10;99.90;;;;;;5003356;28;20504;-62
2023/07/27 04:04:01;;;;;;;7.23;6.53;;;13.10;99.90;;;;;;5005842;28;20500;-62
2023/07/27 04:06:29;;;;;;;6.40;5.80;;;13.20;99.90;;;;;;4998921;28;20956;-62
2023/07/27 04:08:57;;;;;;;13.13;7.70;;;13.20;99.90;;;;;;5001408;28;20583;-62
2023/07/27 04:11:25;;;;;;;6.87;6.27;;;13.20;99.90;;;;;;5000188;28;21006;-62
2023/07/27 04:13:53;;;;;;;7.80;7.10;;;13.30;99.90;;;;;;4998826;28;20484;-62
2023/07/27 04:16:22;;;;;;;8.33;7.50;;;13.30;99.90;;;;;;5001237;28;20492;-62
2023/07/27 04:18:50;;;;;;;8.00;7.20;;;13.30;99.90;;;;;;5000061;28;20975;-63
2023/07/27 04:21:19;;;;;;;8.70;7.90;;;13.30;99.90;;;;;;4998430;28;21022;-62
2023/07/27 04:23:47;;;;;;;12.13;7.93;;;13.30;99.90;;;;;;4994977;28;20488;-62
2023/07/27 04:26:15;;;;;;;8.07;7.37;;;13.40;99.90;;;;;;5004211;28;21024;-62
2023/07/27 04:28:43;;;;;;;7.97;7.13;;;13.40;99.90;;;;;;5002257;28;20474;-62
2023/07/27 04:31:11;;;;;;;7.33;6.73;;;13.50;99.90;;;;;;5000796;28;20499;-66
2023/07/27 04:33:39;;;;;;;7.70;7.00;;;13.50;99.90;;;;;;4997872;28;20508;-62
2023/07/27 04:36:07;;;;;;;8.00;7.20;;;13.50;99.90;;;;;;5001370;28;20484;-62
2023/07/27 04:38:36;;;;;;;9.73;7.50;;;13.50;99.90;;;;;;4998610;28;20468;-62
2023/07/27 04:41:04;;;;;;;8.00;7.30;;;13.50;99.90;;;;;;4999077;28;20467;-62
2023/07/27 04:43:32;;;;;;;8.10;7.40;;;13.50;99.90;;;;;;5001609;28;20595;-62
2023/07/27 04:46:00;;;;;;;7.60;6.90;;;13.60;99.90;;;;;;5002100;28;20551;-62
2023/07/27 04:48:28;;;;;;;8.10;7.30;;;13.60;99.90;;;;;;4999747;28;20468;-63
2023/07/27 04:50:56;;;;;;;8.40;7.60;;;13.60;99.90;;;;;;5000794;28;20491;-62
2023/07/27 04:53:24;;;;;;;8.00;7.20;;;13.70;99.90;;;;;;4985411;28;20494;-62
2023/07/27 04:55:54;;;;;;;8.00;7.20;;;13.70;99.90;;;;;;4999446;28;20480;-62
2023/07/27 04:58:22;;;;;;;8.53;7.67;;;13.70;99.90;;;;;;5003549;28;21024;-62
2023/07/27 05:00:54;;;;;;;8.80;7.47;;;13.80;99.90;;;;;;4996182;28;20571;-62
2023/07/27 05:03:22;;;;;;;8.50;7.60;;;13.90;99.90;;;;;;4996693;28;20496;-62
2023/07/27 05:05:52;;;;;;;8.83;8.03;;;13.90;99.90;;;;;;4998172;28;20574;-62
2023/07/27 05:08:20;;;;;;;8.67;7.77;;;13.90;99.90;;;;;;5000317;28;20563;-62
2023/07/27 05:10:48;;;;;;;9.27;7.60;;;14.00;99.90;;;;;;4996802;28;20534;-62
2023/07/27 05:13:17;;;;;;;8.53;7.83;;;14.00;99.90;;;;;;4995861;28;20615;-62
2023/07/27 05:15:45;;;;;;;10.27;9.33;;;14.00;99.90;;;;;;4995637;28;20627;-62
2023/07/27 05:18:14;;;;;;;9.50;8.70;;;14.00;99.90;;;;;;4999163;28;20592;-62
2023/07/27 05:20:43;;;;;;;9.37;8.50;;;14.10;99.90;;;;;;4988195;28;20515;-62
2023/07/27 05:23:11;;;;;;;8.97;8.07;;;14.20;99.90;;;;;;4992754;28;20567;-62
2023/07/27 05:25:39;;;;;;;9.37;8.53;;;14.20;99.90;;;;;;4993239;28;20500;-62
2023/07/27 05:28:07;;;;;;;9.93;9.00;;;14.20;99.90;;;;;;4994918;28;20543;-62
2023/07/27 05:30:37;;;;;;;8.90;8.10;;;14.20;99.90;;;;;;4997715;28;20940;-62
2023/07/27 05:33:05;;;;;;;9.13;8.23;;;14.20;99.90;;;;;;4995161;28;20488;-62
2023/07/27 05:35:33;;;;;;;10.50;9.50;;;14.20;99.90;;;;;;5000405;28;20476;-62
2023/07/27 05:38:01;;;;;;;11.17;10.07;;;14.20;99.90;;;;;;4997468;28;20581;-62
2023/07/27 05:40:29;;;;;;;10.80;9.80;;;14.20;99.90;;;;;;5000419;28;21020;-62
2023/07/27 05:42:57;;;;;;;11.07;9.30;;;14.20;99.90;;;;;;5002380;28;20495;-62
2023/07/27 05:45:25;;;;;;;11.17;9.80;;;14.20;99.90;;;;;;5002114;28;20508;-62
2023/07/27 05:47:54;;;;;;;11.17;9.63;;;14.30;99.90;;;;;;5002704;28;20540;-62
2023/07/27 05:50:22;;;;;;;9.93;8.90;;;14.30;99.90;;;;;;4998063;28;20499;-62
2023/07/27 05:52:50;;;;;;;10.97;9.17;;;14.40;99.90;;;;;;4997163;28;20501;-63
2023/07/27 05:55:19;;;;;;;12.53;9.80;;;14.50;99.90;;;;;;4999583;28;20511;-62
2023/07/27 05:57:46;;;;;;;10.17;9.17;;;14.50;99.90;;;;;;5011226;28;20524;-62
2023/07/27 06:00:15;;;;;;;10.70;9.67;;;14.60;99.90;;;;;;5004485;28;20571;-62
2023/07/27 06:02:43;;;;;;;10.10;9.10;;;14.60;99.90;;;;;;4997536;28;20581;-62
2023/07/27 06:05:13;;;;;;;11.13;9.93;;;14.60;99.90;;;;;;5003203;28;20472;-62
2023/07/27 06:07:42;;;;;;;10.33;9.30;;;14.70;99.90;;;;;;5004011;28;20472;-62
2023/07/27 06:10:11;;;;;;;11.10;9.40;;;14.70;99.90;;;;;;5003680;28;20577;-62
2023/07/27 06:12:39;;;;;;;10.23;9.20;;;14.80;99.90;;;;;;5003361;28;20793;-62
2023/07/27 06:15:08;;;;;;;10.77;9.73;;;14.80;99.90;;;;;;5004404;28;21043;-62
2023/07/27 06:17:36;;;;;;;11.20;10.20;;;14.80;99.90;;;;;;5003982;28;21087;-62
2023/07/27 06:20:05;;;;;;;9.77;8.97;;;14.80;99.90;;;;;;5001355;28;20934;-62
2023/07/27 06:22:34;;;;;;;11.27;9.63;;;14.90;99.90;;;;;;5002902;28;20484;-62
2023/07/27 06:25:02;;;;;;;10.50;9.40;;;14.90;99.90;;;;;;5001615;28;20477;-62
2023/07/27 06:27:30;;;;;;;11.20;10.20;;;14.90;99.90;;;;;;5001939;28;20657;-62
2023/07/27 06:29:59;;;;;;;11.17;10.10;;;14.90;99.90;;;;;;4999560;28;20841;-62
2023/07/27 06:32:27;;;;;;;10.70;9.77;;;14.90;99.90;;;;;;5003015;28;20520;-62
2023/07/27 06:34:55;;;;;;;10.20;9.23;;;14.90;99.90;;;;;;5004230;28;20559;-62
2023/07/27 06:37:23;;;;;;;12.93;9.47;;;15.00;99.90;;;;;;5000634;28;20590;-62
2023/07/27 06:39:54;;;;;;;9.90;8.23;;;15.00;99.90;;;;;;5000506;28;20480;-62
2023/07/27 06:42:22;;;;;;;9.97;9.07;;;15.10;99.90;;;;;;5002063;28;20520;-62
2023/07/27 06:44:50;;;;;;;9.90;8.90;;;15.10;99.90;;;;;;5004506;28;20813;-62
2023/07/27 06:47:18;;;;;;;10.07;9.03;;;15.10;99.90;;;;;;5005514;28;21040;-62
2023/07/27 06:49:46;;;;;;;11.57;9.57;;;15.10;99.90;;;;;;5002940;28;20496;-62
2023/07/27 06:52:14;;;;;;;10.40;8.97;;;15.10;99.90;;;;;;4999044;28;20567;-62
2023/07/27 06:54:42;;;;;;;9.30;8.40;;;15.10;99.90;;;;;;4996986;28;20555;-62
2023/07/27 06:57:11;;;;;;;9.87;9.07;;;15.10;99.90;;;;;;5001741;28;21097;-62
2023/07/27 06:59:39;;;;;;;9.83;8.83;;;15.20;99.90;;;;;;5003833;28;20492;-62
2023/07/27 07:02:07;;;;;;;10.20;9.20;;;15.20;99.90;;;;;;5001903;28;20535;-62
2023/07/27 07:04:35;;;;;;;9.20;8.47;;;15.30;99.90;;;;;;5003312;28;20511;-62
2023/07/27 07:07:07;;;;;;;12.03;8.50;;;15.30;99.90;;;;;;5004427;28;20483;-62
2023/07/27 07:09:35;;;;;;;9.37;8.47;;;15.40;99.90;;;;;;5002479;28;20503;-62
2023/07/27 07:12:05;;;;;;;8.90;7.80;;;15.40;99.90;;;;;;5004668;28;20582;-62
2023/07/27 07:14:34;;;;;;;8.13;7.43;;;15.40;99.90;;;;;;5000314;28;20505;-62
2023/07/27 07:17:03;;;;;;;10.77;8.40;;;15.50;99.90;;;;;;5001583;28;20482;-62
2023/07/27 07:19:32;;;;;;;9.00;8.10;;;15.50;99.90;;;;;;5002157;28;20874;-62
2023/07/27 07:22:00;;;;;;;10.00;8.80;;;15.50;99.90;;;;;;5005744;28;20572;-62
2023/07/27 07:24:28;;;;;;;8.10;7.30;;;15.50;99.90;;;;;;5006033;28;20976;-62
2023/07/27 07:26:56;;;;;;;9.43;8.47;;;15.50;99.90;;;;;;5008547;28;20468;-61
2023/07/27 07:29:24;;;;;;;8.80;7.87;;;15.60;99.90;;;;;;5005552;28;20969;-62
2023/07/27 07:31:54;;;;;;;7.80;6.93;;;15.60;99.90;;;;;;5005862;28;20479;-62
2023/07/27 07:34:22;;;;;;;8.23;7.53;;;15.60;99.90;;;;;;5001417;28;20989;-62
2023/07/27 07:36:50;;;;;;;8.17;7.47;;;15.60;99.90;;;;;;5003940;28;20645;-62
2023/07/27 07:39:18;;;;;;;8.67;7.50;;;15.60;99.90;;;;;;5007712;28;20499;-62
2023/07/27 07:41:46;;;;;;;10.33;8.57;;;15.50;99.90;;;;;;5007641;28;20468;-61
2023/07/27 07:44:14;;;;;;;7.70;6.90;;;15.50;99.90;;;;;;5004995;28;20551;-61
2023/07/27 07:46:42;;;;;;;8.37;7.57;;;15.40;99.90;;;;;;5005556;28;21075;-62
2023/07/27 07:49:11;;;;;;;7.97;7.17;;;15.40;99.90;;;;;;5005430;28;20484;-62
2023/07/27 07:51:39;;;;;;;8.17;7.47;;;15.50;99.90;;;;;;5005067;28;20579;-62
2023/07/27 07:54:09;;;;;;;8.27;7.50;;;15.60;99.90;;;;;;5005924;28;20562;-62
2023/07/27 07:56:37;;;;;;;7.43;6.73;;;15.60;99.90;;;;;;5008802;28;20476;-62
2023/07/27 07:59:05;;;;;;;8.77;7.80;;;15.60;99.90;;;;;;5000153;28;20586;-62
2023/07/27 08:01:33;;;;;;;8.37;7.40;;;15.70;99.90;;;;;;5006019;28;20480;-61
2023/07/27 08:04:01;;;;;;;8.20;7.50;;;15.70;99.90;;;;;;5004576;28;20473;-62
2023/07/27 08:06:31;;;;;;;8.07;6.50;;;15.70;99.90;;;;;;5003736;28;20578;-62
2023/07/27 08:08:59;;;;;;;7.90;7.10;;;15.70;99.90;;;;;;5001012;28;20484;-68
2023/07/27 08:11:27;;;;;;;8.60;7.70;;;15.70;99.90;;;;;;5006825;28;20997;-62
2023/07/27 08:13:58;;;;;;;7.80;7.10;;;15.80;99.90;;;;;;5004383;28;20473;-62
2023/07/27 08:16:26;;;;;;;8.90;7.40;;;15.80;99.90;;;;;;5006421;28;20471;-62
2023/07/27 08:18:54;;;;;;;7.90;7.20;;;15.80;99.90;;;;;;5002359;28;20480;-62
2023/07/27 08:21:22;;;;;;;7.10;6.47;;;15.90;99.90;;;;;;5006009;28;20845;-62
2023/07/27 08:23:53;;;;;;;7.13;6.43;;;15.80;99.90;;;;;;5004107;28;20499;-62
2023/07/27 08:26:21;;;;;;;7.40;6.70;;;15.90;99.90;;;;;;5000312;28;20550;-61
2023/07/27 08:28:49;;;;;;;8.93;7.43;;;16.00;99.90;;;;;;5005727;28;20491;-61
2023/07/27 08:31:17;;;;;;;7.50;6.80;;;15.90;99.90;;;;;;5013355;28;20835;-62
2023/07/27 08:33:45;;;;;;;7.57;6.90;;;16.00;99.90;;;;;;5016757;28;20574;-62
2023/07/27 08:36:13;;;;;;;7.03;6.23;;;16.10;99.90;;;;;;5004986;28;20499;-62
2023/07/27 08:38:41;;;;;;;8.20;7.40;;;16.10;99.90;;;;;;5006664;28;20488;-61
2023/07/27 08:41:10;;;;;;;7.20;6.60;;;16.10;99.90;;;;;;5004824;28;20501;-62
2023/07/27 08:43:39;;;;;;;7.23;6.27;;;16.10;99.90;;;;;;4998832;28;21170;-62
2023/07/27 08:46:08;;;;;;;7.97;7.17;;;16.10;99.90;;;;;;5006266;28;20492;-62
2023/07/27 08:48:37;;;;;;;7.73;6.90;;;16.20;99.90;;;;;;5004399;28;20475;-60
2023/07/27 08:51:05;;;;;;;7.80;7.07;;;16.20;99.90;;;;;;5006805;28;20476;-60
2023/07/27 08:53:33;;;;;;;9.47;7.60;;;16.20;99.90;;;;;;5002128;28;20832;-62
2023/07/27 08:56:01;;;;;;;7.70;6.93;;;16.30;99.90;;;;;;5004556;28;20551;-60
2023/07/27 08:58:32;;;;;;;8.03;7.33;;;16.40;99.90;;;;;;5003810;28;20573;-60
2023/07/27 09:01:00;;;;;;;9.37;7.67;;;16.40;99.90;;;;;;5006387;28;20500;-60
2023/07/27 09:03:28;;;;;;;8.07;7.37;;;16.40;99.90;;;;;;5001898;28;21098;-62
2023/07/27 09:05:58;;;;;;;8.63;7.80;;;16.40;99.90;;;;;;5005459;28;20479;-61
2023/07/27 09:08:29;;;;;;;8.20;7.50;;;16.40;99.90;;;;;;5005934;28;20499;-61
2023/07/27 09:11:05;;;;;;;8.20;7.40;;;16.40;99.90;;;;;;5005481;28;20488;-61
2023/07/27 09:13:35;;;;;;;7.90;7.20;;;16.40;99.90;;;;;;5002751;28;21090;-61
2023/07/27 09:16:05;;;;;;;8.53;7.73;;;16.40;99.90;;;;;;5005681;28;20500;-61
2023/07/27 09:18:35;;;;;;;7.90;7.20;;;16.50;99.90;;;;;;5004455;28;20476;-61
2023/07/27 09:21:08;;;;;;;8.07;7.27;;;16.50;99.90;;;;;;4999731;28;20571;-61
2023/07/27 09:23:37;;;;;;;8.03;7.23;;;16.60;99.90;;;;;;4998110;28;20563;-60
2023/07/27 09:26:05;;;;;;;8.37;7.57;;;16.70;99.90;;;;;;5000179;28;20511;-61
2023/07/27 09:28:35;;;;;;;8.67;8.00;;;16.70;99.90;;;;;;4999549;28;20469;-60
2023/07/27 09:31:04;;;;;;;9.40;8.60;;;16.70;99.90;;;;;;5002849;28;20820;-61
2023/07/27 09:33:32;;;;;;;8.70;7.90;;;16.80;99.90;;;;;;4998400;28;20551;-60
2023/07/27 09:36:01;;;;;;;9.00;8.10;;;16.90;99.90;;;;;;5000184;28;20475;-60
2023/07/27 09:38:30;;;;;;;9.23;8.33;;;17.00;99.90;;;;;;5001851;28;20563;-61
2023/07/27 09:40:58;;;;;;;9.27;8.50;;;17.00;99.90;;;;;;5005936;28;20491;-61
2023/07/27 09:43:26;;;;;;;10.33;9.27;;;16.90;99.90;;;;;;5001997;28;20523;-61
2023/07/27 09:45:59;;;;;;;9.47;8.67;;;16.90;99.90;;;;;;5003886;28;20557;-61
2023/07/27 09:48:28;;;;;;;9.60;8.80;;;17.00;99.90;;;;;;5003378;28;20538;-61
2023/07/27 09:50:59;;;;;;;10.43;9.53;;;17.00;99.90;;;;;;5001736;28;20864;-61
2023/07/27 09:53:30;;;;;;;9.70;8.80;;;17.00;99.90;;;;;;4999468;28;20498;-61
2023/07/27 09:56:00;;;;;;;11.10;9.53;;;16.90;99.90;;;;;;5003647;28;20483;-61
2023/07/27 09:58:29;;;;;;;10.57;9.57;;;16.90;99.90;;;;;;5002550;28;20472;-61
2023/07/27 10:00:59;;;;;;;9.90;9.10;;;16.90;99.90;;;;;;5002283;28;20546;-62
2023/07/27 10:03:27;;;;;;;10.10;9.30;;;16.90;99.90;;;;;;5002737;28;20546;-61
2023/07/27 10:05:56;;;;;;;10.83;9.93;;;16.90;99.90;;;;;;5003554;28;20472;-61
2023/07/27 10:08:31;;;;;;;12.27;11.07;;;16.90;99.90;;;;;;5003409;28;20476;-61
2023/07/27 10:11:01;;;;;;;12.53;11.53;;;17.00;99.90;;;;;;4999034;28;20483;-61
2023/07/27 10:13:37;;;;;;;11.77;10.87;;;17.10;99.90;;;;;;5001618;28;20587;-61
2023/07/27 10:16:10;;;;;;;10.73;9.67;;;17.20;99.90;;;;;;5000867;28;20602;-61
2023/07/27 10:18:45;;;;;;;11.43;10.40;;;17.30;99.90;;;;;;5001646;28;20546;-61
2023/07/27 10:21:27;;;;;;;10.10;9.30;;;17.30;99.90;;;;;;5003776;28;20506;-61
2023/07/27 10:23:58;;;;;;;10.57;9.77;;;17.30;99.90;;;;;;5002989;28;20543;-61
2023/07/27 10:26:46;;;;;;;12.63;11.27;;;17.40;99.90;;;;;;5003317;28;20510;-61
2023/07/27 10:29:16;;;;;;;11.00;10.13;;;17.40;99.90;;;;;;5000448;28;20494;-61
2023/07/27 10:31:47;;;;;;;10.50;9.50;;;17.40;99.90;;;;;;4999190;28;20595;-61
2023/07/27 10:34:16;;;;;;;10.30;9.57;;;17.50;99.90;;;;;;5004638;28;20484;-61
2023/07/27 10:36:52;;;;;;;11.43;10.37;;;17.60;99.90;;;;;;5001342;28;20854;-61
2023/07/27 10:39:26;;;;;;;10.73;9.93;;;17.60;99.90;;;;;;5000914;28;21016;-61
2023/07/27 10:42:16;;;;;;;10.50;9.60;;;17.70;99.90;;;;;;5000786;28;20496;-61
2023/07/27 10:44:46;;;;;;;9.63;8.93;;;17.60;99.90;;;;;;4995734;28;20526;-61
2023/07/27 10:47:17;;;;;;;9.27;8.57;;;17.60;99.90;;;;;;5004870;28;21040;-61
2023/07/27 10:49:47;;;;;;;7.83;7.23;;;17.70;99.90;;;;;;5002395;28;20492;-61
2023/07/27 10:52:17;;;;;;;8.23;7.50;;;17.70;99.90;;;;;;4998635;28;20549;-61
2023/07/27 10:54:47;;;;;;;8.87;7.97;;;17.80;99.90;;;;;;5005487;28;21117;-61
2023/07/27 10:57:16;;;;;;;8.20;7.40;;;17.80;99.90;;;;;;5004587;28;20475;-61
2023/07/27 10:59:46;;;;;;;8.10;7.30;;;17.90;99.90;;;;;;5007917;28;20571;-61
2023/07/27 11:02:20;;;;;;;7.53;6.83;;;18.00;99.90;;;;;;5006132;28;20493;-62
2023/07/27 11:04:49;;;;;;;8.43;7.63;;;18.00;99.90;;;;;;5010497;28;20536;-61
2023/07/27 11:07:26;;;;;;;8.13;7.43;;;18.00;99.90;;;;;;5015545;28;21034;-62
2023/07/27 11:09:54;;;;;;;8.20;7.50;;;18.00;99.90;;;;;;5011000;28;20626;-62
2023/07/27 11:12:23;;;;;;;8.63;7.50;;;18.00;99.90;;;;;;5006855;28;20583;-61
2023/07/27 11:14:51;;;;;;;8.73;8.03;;;18.00;99.90;;;;;;5006343;28;20527;-61
2023/07/27 11:17:21;;;;;;;8.30;7.60;;;18.00;99.90;;;;;;5005034;28;20472;-61
2023/07/27 11:19:50;;;;;;;7.87;7.00;;;18.00;99.90;;;;;;5006337;28;20554;-61
2023/07/27 11:22:18;;;;;;;8.10;7.30;;;18.10;99.90;;;;;;5005347;28;20480;-61
2023/07/27 11:24:48;;;;;;;8.23;7.53;;;18.10;99.90;;;;;;5004817;28;20471;-61
2023/07/27 11:27:16;;;;;;;8.13;7.43;;;18.10;99.90;;;;;;5008086;28;20563;-61
2023/07/27 11:29:49;;;;;;;8.53;7.73;;;18.10;99.90;;;;;;5005767;28;20494;-61
2023/07/27 11:32:24;;;;;;;6.90;6.37;;;18.10;99.90;;;;;;5005830;28;20502;-61
2023/07/27 11:34:56;;;;;;;7.47;6.83;;;18.20;99.90;;;;;;5006000;28;20570;-61
2023/07/27 11:37:26;;;;;;;7.33;6.63;;;18.20;99.90;;;;;;5004619;28;20479;-61
2023/07/27 11:39:55;;;;;;;7.07;6.40;;;18.20;99.90;;;;;;5005626;28;20487;-61
2023/07/27 11:42:27;;;;;;;6.87;6.23;;;18.30;99.90;;;;;;5006691;28;20967;-61
2023/07/27 11:44:56;;;;;;;6.47;5.97;;;18.30;99.90;;;;;;5007283;28;20522;-61
2023/07/27 11:47:24;;;;;;;6.43;5.83;;;18.40;99.90;;;;;;5008744;28;20479;-61
2023/07/27 11:49:54;;;;;;;7.27;6.70;;;18.40;99.90;;;;;;5005666;28;20495;-62
2023/07/27 11:52:25;;;;;;;7.40;6.80;;;18.50;99.90;;;;;;5003583;28;20492;-61
2023/07/27 11:54:54;;;;;;;6.97;6.27;;;18.50;99.90;;;;;;5007799;28;20562;-61
2023/07/27 11:57:24;;;;;;;8.20;7.50;;;18.50;99.90;;;;;;5004900;28;20488;-61
2023/07/27 12:00:01;;;;;;;7.20;6.60;;;18.60;99.90;;;;;;5003016;28;20931;-61
2023/07/27 12:02:32;;;;;;;9.63;6.70;;;18.60;99.90;;;;;;5001958;28;21870;-61
2023/07/27 12:05:01;;;;;;;9.57;7.20;;;18.60;99.90;;;;;;5002838;28;20866;-62
2023/07/27 12:07:33;;;;;;;8.10;7.03;;;18.70;99.90;;;;;;4998256;28;20476;-61
2023/07/27 12:10:22;;;;;;;9.87;7.27;;;18.70;99.90;;;;;;4999825;28;20470;-62
2023/07/27 12:12:58;;;;;;;7.70;7.00;;;18.70;99.90;;;;;;5000919;28;20884;-62
2023/07/27 12:15:46;;;;;;;7.53;6.73;;;18.70;99.90;;;;;;4997267;28;20985;-61
2023/07/27 12:18:34;;;;;;;7.50;6.90;;;18.70;99.90;;;;;;4999838;28;20482;-62
2023/07/27 12:21:05;;;;;;;6.43;5.93;;;18.80;99.90;;;;;;5004102;28;20494;-62
2023/07/27 12:23:54;;;;;;;8.87;6.47;;;18.80;99.90;;;;;;5005208;28;20472;-61
2023/07/27 12:26:25;;;;;;;8.30;7.50;;;18.80;99.90;;;;;;5004438;28;21097;-62
2023/07/27 12:28:55;;;;;;;8.60;7.80;;;18.90;99.90;;;;;;4998837;28;20559;-61
2023/07/27 12:31:43;;;;;;;7.67;7.07;;;18.90;99.90;;;;;;5003953;28;20477;-61
2023/07/27 12:34:15;;;;;;;7.70;7.00;;;18.90;99.90;;;;;;5003424;28;20559;-61
2023/07/27 12:36:46;;;;;;;7.80;7.20;;;18.80;99.90;;;;;;5003057;28;20564;-61
2023/07/27 12:39:19;;;;;;;7.20;6.50;;;18.70;99.90;;;;;;5002980;28;20550;-62
2023/07/27 12:41:47;;;;;;;7.60;6.93;;;18.60;99.90;;;;;;4998360;28;20500;-62
2023/07/27 12:44:18;;;;;;;7.77;7.07;;;18.50;99.90;;;;;;5006597;28;20578;-62
2023/07/27 12:46:46;;;;;;;8.77;8.07;;;18.40;99.90;;;;;;5004336;28;20923;-62
2023/07/27 12:49:14;;;;;;;7.50;6.90;;;18.40;99.90;;;;;;5002559;28;20499;-62
2023/07/27 12:51:42;;;;;;;7.67;6.97;;;18.30;99.90;;;;;;4999926;28;20468;-62
2023/07/27 12:54:10;;;;;;;7.20;6.60;;;18.30;99.90;;;;;;5004901;28;21044;-62
2023/07/27 12:56:40;;;;;;;7.97;7.30;;;18.40;99.90;;;;;;5006974;28;20497;-62
2023/07/27 12:59:08;;;;;;;7.07;6.57;;;18.40;99.90;;;;;;5001563;28;21008;-62